Terminal Aerodrome Forecast
Issued by NWS Upton, NY

Home | Current Version | Previous Version | Text Only | Print | Product List | Glossary On
Versions: 1 2 3 4 5 6 7 8 9 10 11 12 13 14 15 16 17 18 19 20 21 22 23 24 25 26 27 28 29 30 31
090
FTUS41 KOKX 271227 AAA
TAFBDR
TAF AMD
KBDR 271227Z 2712/2812 07011KT 1/2SM FG OVC004
     FM271300 07006KT 1/2SM -RA FG OVC004
     FM271700 VRB05KT 1SM BR OVC006
     FM271900 02006KT 3SM BR OVC100
     FM272100 VRB04KT 4SM BR BKN015
     FM280400 18002KT 3SM BR OVC010
     FM280800 07003KT 1/2SM FG OVC003=

USA.gov is the U.S. government's official web portal to all federal, state and local government web resources and services.